sensor_id;sensor_type;location;lat;lon;timestamp;P1;durP1;ratioP1;P2;durP2;ratioP2
37280;SDS011;23169;41.804;12.596;2023-08-31T00:00:32;18.08;;;4.35;;
37280;SDS011;23169;41.804;12.596;2023-08-31T00:03:02;17.95;;;4.50;;
37280;SDS011;23169;41.804;12.596;2023-08-31T00:05:31;22.58;;;4.95;;
37280;SDS011;23169;41.804;12.596;2023-08-31T00:07:59;16.98;;;4.53;;
37280;SDS011;23169;41.804;12.596;2023-08-31T00:10:29;19.85;;;4.65;;
37280;SDS011;23169;41.804;12.596;2023-08-31T00:12:58;15.10;;;4.72;;
37280;SDS011;23169;41.804;12.596;2023-08-31T00:15:29;24.65;;;6.10;;
37280;SDS011;23169;41.804;12.596;2023-08-31T00:18:01;17.13;;;4.70;;
37280;SDS011;23169;41.804;12.596;2023-08-31T00:20:35;15.48;;;4.05;;
37280;SDS011;23169;41.804;12.596;2023-08-31T00:23:05;16.33;;;5.30;;
37280;SDS011;23169;41.804;12.596;2023-08-31T00:25:34;18.30;;;4.82;;
37280;SDS011;23169;41.804;12.596;2023-08-31T00:28:03;17.25;;;4.22;;
37280;SDS011;23169;41.804;12.596;2023-08-31T00:30:33;18.38;;;4.10;;
37280;SDS011;23169;41.804;12.596;2023-08-31T00:33:02;18.08;;;4.60;;
37280;SDS011;23169;41.804;12.596;2023-08-31T00:35:33;16.02;;;4.80;;
37280;SDS011;23169;41.804;12.596;2023-08-31T00:38:05;17.60;;;3.95;;
37280;SDS011;23169;41.804;12.596;2023-08-31T00:40:42;17.02;;;3.97;;
37280;SDS011;23169;41.804;12.596;2023-08-31T00:43:18;15.52;;;3.97;;
37280;SDS011;23169;41.804;12.596;2023-08-31T00:45:48;18.90;;;4.22;;
37280;SDS011;23169;41.804;12.596;2023-08-31T00:48:24;20.13;;;4.93;;
37280;SDS011;23169;41.804;12.596;2023-08-31T00:50:53;15.20;;;3.92;;
37280;SDS011;23169;41.804;12.596;2023-08-31T00:53:23;17.05;;;4.18;;
37280;SDS011;23169;41.804;12.596;2023-08-31T00:55:53;23.77;;;5.22;;
37280;SDS011;23169;41.804;12.596;2023-08-31T00:58:22;19.98;;;4.70;;
37280;SDS011;23169;41.804;12.596;2023-08-31T01:01:01;14.43;;;4.10;;
37280;SDS011;23169;41.804;12.596;2023-08-31T01:03:46;23.58;;;4.80;;
37280;SDS011;23169;41.804;12.596;2023-08-31T01:06:36;17.08;;;5.18;;
37280;SDS011;23169;41.804;12.596;2023-08-31T01:09:24;13.75;;;4.20;;
37280;SDS011;23169;41.804;12.596;2023-08-31T01:13:00;16.25;;;4.70;;
37280;SDS011;23169;41.804;12.596;2023-08-31T01:15:11;14.90;;;4.15;;
37280;SDS011;23169;41.804;12.596;2023-08-31T01:17:44;19.98;;;4.47;;
37280;SDS011;23169;41.804;12.596;2023-08-31T01:23:13;16.10;;;5.15;;
37280;SDS011;23169;41.804;12.596;2023-08-31T01:25:47;19.63;;;4.90;;
37280;SDS011;23169;41.804;12.596;2023-08-31T01:28:16;17.17;;;4.40;;
37280;SDS011;23169;41.804;12.596;2023-08-31T01:30:45;17.13;;;4.38;;
37280;SDS011;23169;41.804;12.596;2023-08-31T01:33:14;24.40;;;5.47;;
37280;SDS011;23169;41.804;12.596;2023-08-31T01:35:47;19.50;;;4.25;;
37280;SDS011;23169;41.804;12.596;2023-08-31T01:38:21;19.30;;;5.50;;
37280;SDS011;23169;41.804;12.596;2023-08-31T01:41:00;20.60;;;4.35;;
37280;SDS011;23169;41.804;12.596;2023-08-31T01:43:36;19.77;;;5.85;;
37280;SDS011;23169;41.804;12.596;2023-08-31T01:46:07;24.13;;;4.70;;
37280;SDS011;23169;41.804;12.596;2023-08-31T01:48:40;20.33;;;4.75;;
37280;SDS011;23169;41.804;12.596;2023-08-31T01:51:09;23.45;;;4.32;;
37280;SDS011;23169;41.804;12.596;2023-08-31T01:53:39;23.17;;;4.78;;
37280;SDS011;23169;41.804;12.596;2023-08-31T01:56:08;19.80;;;4.85;;
37280;SDS011;23169;41.804;12.596;2023-08-31T01:58:38;16.48;;;4.13;;
37280;SDS011;23169;41.804;12.596;2023-08-31T02:01:08;19.63;;;5.25;;
37280;SDS011;23169;41.804;12.596;2023-08-31T02:03:37;16.15;;;4.40;;
37280;SDS011;23169;41.804;12.596;2023-08-31T02:06:07;22.77;;;4.65;;
37280;SDS011;23169;41.804;12.596;2023-08-31T02:08:40;14.20;;;4.13;;
37280;SDS011;23169;41.804;12.596;2023-08-31T02:11:09;17.73;;;4.10;;
37280;SDS011;23169;41.804;12.596;2023-08-31T02:13:38;20.63;;;4.53;;
37280;SDS011;23169;41.804;12.596;2023-08-31T02:16:07;15.27;;;3.95;;
37280;SDS011;23169;41.804;12.596;2023-08-31T02:18:38;27.70;;;4.10;;
37280;SDS011;23169;41.804;12.596;2023-08-31T02:21:07;17.45;;;4.88;;
37280;SDS011;23169;41.804;12.596;2023-08-31T02:23:37;18.70;;;5.68;;
37280;SDS011;23169;41.804;12.596;2023-08-31T02:26:07;17.08;;;4.38;;
37280;SDS011;23169;41.804;12.596;2023-08-31T02:28:38;20.63;;;4.45;;
37280;SDS011;23169;41.804;12.596;2023-08-31T02:31:07;15.32;;;4.10;;
37280;SDS011;23169;41.804;12.596;2023-08-31T02:33:38;16.73;;;4.55;;
37280;SDS011;23169;41.804;12.596;2023-08-31T02:36:07;21.98;;;4.03;;
37280;SDS011;23169;41.804;12.596;2023-08-31T02:38:38;16.92;;;4.55;;
37280;SDS011;23169;41.804;12.596;2023-08-31T02:41:09;18.58;;;5.00;;
37280;SDS011;23169;41.804;12.596;2023-08-31T02:43:39;23.08;;;5.10;;
37280;SDS011;23169;41.804;12.596;2023-08-31T02:46:10;14.32;;;4.35;;
37280;SDS011;23169;41.804;12.596;2023-08-31T02:48:43;19.00;;;5.28;;
37280;SDS011;23169;41.804;12.596;2023-08-31T02:51:17;22.65;;;4.88;;
37280;SDS011;23169;41.804;12.596;2023-08-31T02:53:47;18.38;;;4.97;;
37280;SDS011;23169;41.804;12.596;2023-08-31T02:56:17;18.75;;;4.20;;
37280;SDS011;23169;41.804;12.596;2023-08-31T02:58:49;22.63;;;4.32;;
37280;SDS011;23169;41.804;12.596;2023-08-31T03:01:18;19.70;;;4.80;;
37280;SDS011;23169;41.804;12.596;2023-08-31T03:03:47;14.40;;;4.85;;
37280;SDS011;23169;41.804;12.596;2023-08-31T03:06:17;18.77;;;5.07;;
37280;SDS011;23169;41.804;12.596;2023-08-31T03:08:48;15.68;;;3.83;;
37280;SDS011;23169;41.804;12.596;2023-08-31T03:11:18;22.67;;;4.90;;
37280;SDS011;23169;41.804;12.596;2023-08-31T03:13:48;11.20;;;4.00;;
37280;SDS011;23169;41.804;12.596;2023-08-31T03:16:18;23.63;;;4.53;;
37280;SDS011;23169;41.804;12.596;2023-08-31T03:18:48;17.10;;;4.00;;
37280;SDS011;23169;41.804;12.596;2023-08-31T03:21:17;17.10;;;5.32;;
37280;SDS011;23169;41.804;12.596;2023-08-31T03:23:46;14.32;;;5.20;;
37280;SDS011;23169;41.804;12.596;2023-08-31T03:26:15;20.65;;;5.10;;
37280;SDS011;23169;41.804;12.596;2023-08-31T03:28:44;17.55;;;5.22;;
37280;SDS011;23169;41.804;12.596;2023-08-31T03:31:13;20.33;;;5.35;;
37280;SDS011;23169;41.804;12.596;2023-08-31T03:33:42;17.17;;;4.55;;
37280;SDS011;23169;41.804;12.596;2023-08-31T03:36:11;15.77;;;4.82;;
37280;SDS011;23169;41.804;12.596;2023-08-31T03:38:41;24.00;;;5.03;;
37280;SDS011;23169;41.804;12.596;2023-08-31T03:41:10;15.45;;;5.28;;
37280;SDS011;23169;41.804;12.596;2023-08-31T03:43:39;18.95;;;4.82;;
37280;SDS011;23169;41.804;12.596;2023-08-31T03:46:08;18.00;;;4.50;;
37280;SDS011;23169;41.804;12.596;2023-08-31T03:48:40;18.52;;;4.45;;
37280;SDS011;23169;41.804;12.596;2023-08-31T03:51:08;18.23;;;5.03;;
37280;SDS011;23169;41.804;12.596;2023-08-31T03:53:38;17.25;;;5.85;;
37280;SDS011;23169;41.804;12.596;2023-08-31T03:56:07;24.15;;;7.80;;
37280;SDS011;23169;41.804;12.596;2023-08-31T03:58:37;20.95;;;5.97;;
37280;SDS011;23169;41.804;12.596;2023-08-31T04:01:05;18.65;;;5.07;;
37280;SDS011;23169;41.804;12.596;2023-08-31T04:03:35;25.25;;;5.63;;
37280;SDS011;23169;41.804;12.596;2023-08-31T04:06:04;16.23;;;4.90;;
37280;SDS011;23169;41.804;12.596;2023-08-31T04:08:36;19.40;;;5.97;;
37280;SDS011;23169;41.804;12.596;2023-08-31T04:11:05;22.65;;;5.72;;
37280;SDS011;23169;41.804;12.596;2023-08-31T04:13:33;21.17;;;5.40;;
37280;SDS011;23169;41.804;12.596;2023-08-31T04:16:02;20.58;;;5.40;;
37280;SDS011;23169;41.804;12.596;2023-08-31T04:18:32;21.10;;;4.95;;
37280;SDS011;23169;41.804;12.596;2023-08-31T04:21:01;18.95;;;4.95;;
37280;SDS011;23169;41.804;12.596;2023-08-31T04:23:32;19.27;;;4.78;;
37280;SDS011;23169;41.804;12.596;2023-08-31T04:26:09;16.55;;;5.35;;
37280;SDS011;23169;41.804;12.596;2023-08-31T04:28:43;17.30;;;4.85;;
37280;SDS011;23169;41.804;12.596;2023-08-31T04:31:13;19.83;;;5.10;;
37280;SDS011;23169;41.804;12.596;2023-08-31T04:33:42;22.50;;;5.18;;
37280;SDS011;23169;41.804;12.596;2023-08-31T04:36:11;19.70;;;4.65;;
37280;SDS011;23169;41.804;12.596;2023-08-31T04:38:41;20.67;;;4.70;;
37280;SDS011;23169;41.804;12.596;2023-08-31T04:41:12;22.08;;;5.32;;
37280;SDS011;23169;41.804;12.596;2023-08-31T04:43:42;15.40;;;4.65;;
37280;SDS011;23169;41.804;12.596;2023-08-31T04:46:12;19.98;;;4.97;;
37280;SDS011;23169;41.804;12.596;2023-08-31T04:48:44;22.23;;;5.20;;
37280;SDS011;23169;41.804;12.596;2023-08-31T04:51:30;17.70;;;5.43;;
37280;SDS011;23169;41.804;12.596;2023-08-31T04:54:00;19.33;;;5.63;;
37280;SDS011;23169;41.804;12.596;2023-08-31T04:56:32;22.02;;;5.78;;
37280;SDS011;23169;41.804;12.596;2023-08-31T04:59:02;19.92;;;5.07;;
37280;SDS011;23169;41.804;12.596;2023-08-31T05:01:31;16.33;;;4.70;;
37280;SDS011;23169;41.804;12.596;2023-08-31T05:04:01;21.05;;;5.07;;
37280;SDS011;23169;41.804;12.596;2023-08-31T05:06:31;15.45;;;4.35;;
37280;SDS011;23169;41.804;12.596;2023-08-31T05:09:00;17.42;;;4.75;;
37280;SDS011;23169;41.804;12.596;2023-08-31T05:11:30;19.35;;;4.90;;
37280;SDS011;23169;41.804;12.596;2023-08-31T05:13:58;18.95;;;4.93;;
37280;SDS011;23169;41.804;12.596;2023-08-31T05:16:28;18.75;;;4.53;;
37280;SDS011;23169;41.804;12.596;2023-08-31T05:18:57;17.13;;;4.35;;
37280;SDS011;23169;41.804;12.596;2023-08-31T05:21:27;16.13;;;4.78;;
37280;SDS011;23169;41.804;12.596;2023-08-31T05:23:56;19.25;;;4.72;;
37280;SDS011;23169;41.804;12.596;2023-08-31T05:26:25;15.50;;;4.90;;
37280;SDS011;23169;41.804;12.596;2023-08-31T05:28:55;18.70;;;5.13;;
37280;SDS011;23169;41.804;12.596;2023-08-31T05:31:24;13.57;;;4.57;;
37280;SDS011;23169;41.804;12.596;2023-08-31T05:33:52;11.85;;;4.38;;
37280;SDS011;23169;41.804;12.596;2023-08-31T05:36:21;17.45;;;5.10;;
37280;SDS011;23169;41.804;12.596;2023-08-31T05:38:53;15.63;;;5.10;;
37280;SDS011;23169;41.804;12.596;2023-08-31T05:41:22;19.65;;;4.75;;
37280;SDS011;23169;41.804;12.596;2023-08-31T05:43:51;15.10;;;5.47;;
37280;SDS011;23169;41.804;12.596;2023-08-31T05:46:20;17.92;;;5.20;;
37280;SDS011;23169;41.804;12.596;2023-08-31T05:48:49;18.05;;;5.03;;
37280;SDS011;23169;41.804;12.596;2023-08-31T05:51:18;17.85;;;5.40;;
37280;SDS011;23169;41.804;12.596;2023-08-31T05:53:47;16.70;;;4.88;;
37280;SDS011;23169;41.804;12.596;2023-08-31T05:56:17;17.83;;;4.93;;
37280;SDS011;23169;41.804;12.596;2023-08-31T05:58:48;17.58;;;5.00;;
37280;SDS011;23169;41.804;12.596;2023-08-31T06:01:18;19.60;;;5.18;;
37280;SDS011;23169;41.804;12.596;2023-08-31T06:03:47;14.70;;;4.68;;
37280;SDS011;23169;41.804;12.596;2023-08-31T06:06:17;15.20;;;4.82;;
37280;SDS011;23169;41.804;12.596;2023-08-31T06:08:49;19.10;;;4.55;;
37280;SDS011;23169;41.804;12.596;2023-08-31T06:11:19;20.63;;;5.05;;
37280;SDS011;23169;41.804;12.596;2023-08-31T06:13:49;15.13;;;5.38;;
37280;SDS011;23169;41.804;12.596;2023-08-31T06:16:23;16.75;;;4.68;;
37280;SDS011;23169;41.804;12.596;2023-08-31T06:18:54;22.67;;;4.97;;
37280;SDS011;23169;41.804;12.596;2023-08-31T06:21:39;19.90;;;4.90;;
37280;SDS011;23169;41.804;12.596;2023-08-31T06:24:08;21.73;;;4.90;;
37280;SDS011;23169;41.804;12.596;2023-08-31T06:26:42;21.30;;;4.47;;
37280;SDS011;23169;41.804;12.596;2023-08-31T06:29:13;16.73;;;4.90;;
37280;SDS011;23169;41.804;12.596;2023-08-31T06:31:43;16.38;;;4.75;;
37280;SDS011;23169;41.804;12.596;2023-08-31T06:34:12;15.80;;;4.50;;
37280;SDS011;23169;41.804;12.596;2023-08-31T06:36:41;14.80;;;4.65;;
37280;SDS011;23169;41.804;12.596;2023-08-31T06:39:10;17.17;;;4.32;;
37280;SDS011;23169;41.804;12.596;2023-08-31T06:41:40;19.98;;;5.03;;
37280;SDS011;23169;41.804;12.596;2023-08-31T06:44:10;11.32;;;4.47;;
37280;SDS011;23169;41.804;12.596;2023-08-31T06:46:43;17.20;;;4.30;;
37280;SDS011;23169;41.804;12.596;2023-08-31T06:49:13;17.50;;;4.90;;
37280;SDS011;23169;41.804;12.596;2023-08-31T06:51:45;12.95;;;5.55;;
37280;SDS011;23169;41.804;12.596;2023-08-31T06:54:17;17.80;;;4.88;;
37280;SDS011;23169;41.804;12.596;2023-08-31T06:56:48;20.88;;;4.68;;
37280;SDS011;23169;41.804;12.596;2023-08-31T06:59:20;19.95;;;5.45;;
37280;SDS011;23169;41.804;12.596;2023-08-31T07:01:49;19.38;;;4.30;;
37280;SDS011;23169;41.804;12.596;2023-08-31T07:04:18;16.25;;;4.47;;
37280;SDS011;23169;41.804;12.596;2023-08-31T07:06:47;17.33;;;4.68;;
37280;SDS011;23169;41.804;12.596;2023-08-31T07:09:16;20.23;;;4.72;;
37280;SDS011;23169;41.804;12.596;2023-08-31T07:11:47;18.98;;;4.70;;
37280;SDS011;23169;41.804;12.596;2023-08-31T07:14:16;19.13;;;4.50;;
37280;SDS011;23169;41.804;12.596;2023-08-31T07:16:48;19.48;;;4.47;;
37280;SDS011;23169;41.804;12.596;2023-08-31T07:19:18;16.98;;;4.22;;
37280;SDS011;23169;41.804;12.596;2023-08-31T07:21:47;21.30;;;5.18;;
37280;SDS011;23169;41.804;12.596;2023-08-31T07:24:16;16.45;;;4.10;;
37280;SDS011;23169;41.804;12.596;2023-08-31T07:26:45;16.88;;;4.53;;
37280;SDS011;23169;41.804;12.596;2023-08-31T07:29:15;14.45;;;4.30;;
37280;SDS011;23169;41.804;12.596;2023-08-31T07:31:44;20.95;;;4.15;;
37280;SDS011;23169;41.804;12.596;2023-08-31T07:34:13;20.02;;;4.82;;
37280;SDS011;23169;41.804;12.596;2023-08-31T07:36:42;12.73;;;3.88;;
37280;SDS011;23169;41.804;12.596;2023-08-31T07:39:12;22.27;;;5.00;;
37280;SDS011;23169;41.804;12.596;2023-08-31T07:41:41;21.38;;;4.45;;
37280;SDS011;23169;41.804;12.596;2023-08-31T07:44:11;14.55;;;4.30;;
37280;SDS011;23169;41.804;12.596;2023-08-31T07:46:41;18.50;;;3.95;;
37280;SDS011;23169;41.804;12.596;2023-08-31T07:49:10;17.90;;;4.38;;
37280;SDS011;23169;41.804;12.596;2023-08-31T07:51:41;17.73;;;4.43;;
37280;SDS011;23169;41.804;12.596;2023-08-31T07:54:10;16.80;;;4.50;;
37280;SDS011;23169;41.804;12.596;2023-08-31T07:56:39;17.95;;;4.43;;
37280;SDS011;23169;41.804;12.596;2023-08-31T07:59:10;11.20;;;3.85;;
37280;SDS011;23169;41.804;12.596;2023-08-31T08:01:38;17.40;;;4.60;;
37280;SDS011;23169;41.804;12.596;2023-08-31T08:04:10;17.70;;;3.83;;
37280;SDS011;23169;41.804;12.596;2023-08-31T08:06:40;21.60;;;3.83;;
37280;SDS011;23169;41.804;12.596;2023-08-31T08:09:11;21.75;;;4.55;;
37280;SDS011;23169;41.804;12.596;2023-08-31T08:11:42;19.55;;;4.13;;
37280;SDS011;23169;41.804;12.596;2023-08-31T08:14:11;19.85;;;4.20;;
37280;SDS011;23169;41.804;12.596;2023-08-31T08:16:42;12.85;;;3.60;;
37280;SDS011;23169;41.804;12.596;2023-08-31T08:19:12;16.05;;;4.72;;
37280;SDS011;23169;41.804;12.596;2023-08-31T08:21:42;14.63;;;3.70;;
37280;SDS011;23169;41.804;12.596;2023-08-31T08:24:12;19.35;;;4.60;;
37280;SDS011;23169;41.804;12.596;2023-08-31T08:26:43;14.63;;;4.30;;
37280;SDS011;23169;41.804;12.596;2023-08-31T08:29:13;10.52;;;3.80;;
37280;SDS011;23169;41.804;12.596;2023-08-31T08:31:42;18.75;;;4.38;;
37280;SDS011;23169;41.804;12.596;2023-08-31T08:34:11;18.90;;;4.88;;
37280;SDS011;23169;41.804;12.596;2023-08-31T08:36:42;14.75;;;4.10;;
37280;SDS011;23169;41.804;12.596;2023-08-31T08:39:13;15.38;;;4.60;;
37280;SDS011;23169;41.804;12.596;2023-08-31T08:41:43;13.75;;;4.05;;
37280;SDS011;23169;41.804;12.596;2023-08-31T08:44:14;15.27;;;4.10;;
37280;SDS011;23169;41.804;12.596;2023-08-31T08:46:48;15.45;;;4.20;;
37280;SDS011;23169;41.804;12.596;2023-08-31T08:49:18;12.55;;;4.22;;
37280;SDS011;23169;41.804;12.596;2023-08-31T08:51:47;19.88;;;4.32;;
37280;SDS011;23169;41.804;12.596;2023-08-31T08:54:18;14.18;;;4.00;;
37280;SDS011;23169;41.804;12.596;2023-08-31T08:56:50;11.13;;;3.63;;
37280;SDS011;23169;41.804;12.596;2023-08-31T08:59:19;11.55;;;3.42;;
37280;SDS011;23169;41.804;12.596;2023-08-31T09:01:48;22.38;;;4.30;;
37280;SDS011;23169;41.804;12.596;2023-08-31T09:04:17;13.63;;;3.53;;
37280;SDS011;23169;41.804;12.596;2023-08-31T09:06:47;13.77;;;3.83;;
37280;SDS011;23169;41.804;12.596;2023-08-31T09:09:15;11.43;;;4.22;;
37280;SDS011;23169;41.804;12.596;2023-08-31T09:11:46;21.52;;;3.95;;
37280;SDS011;23169;41.804;12.596;2023-08-31T09:14:18;18.25;;;4.93;;
37280;SDS011;23169;41.804;12.596;2023-08-31T09:16:50;24.30;;;4.50;;
37280;SDS011;23169;41.804;12.596;2023-08-31T09:19:23;15.65;;;4.00;;
37280;SDS011;23169;41.804;12.596;2023-08-31T09:21:57;15.30;;;4.32;;
37280;SDS011;23169;41.804;12.596;2023-08-31T09:24:26;12.38;;;3.72;;
37280;SDS011;23169;41.804;12.596;2023-08-31T09:26:58;17.48;;;4.20;;
37280;SDS011;23169;41.804;12.596;2023-08-31T09:29:28;17.88;;;4.40;;
37280;SDS011;23169;41.804;12.596;2023-08-31T09:31:58;19.75;;;4.68;;
37280;SDS011;23169;41.804;12.596;2023-08-31T09:34:33;11.85;;;3.97;;
37280;SDS011;23169;41.804;12.596;2023-08-31T09:37:04;17.38;;;4.28;;
37280;SDS011;23169;41.804;12.596;2023-08-31T09:39:41;14.55;;;4.13;;
37280;SDS011;23169;41.804;12.596;2023-08-31T09:42:10;16.00;;;4.10;;
37280;SDS011;23169;41.804;12.596;2023-08-31T09:44:44;12.55;;;3.80;;
37280;SDS011;23169;41.804;12.596;2023-08-31T09:47:17;11.40;;;3.50;;
37280;SDS011;23169;41.804;12.596;2023-08-31T09:49:48;14.85;;;4.07;;
37280;SDS011;23169;41.804;12.596;2023-08-31T09:52:18;15.27;;;4.50;;
37280;SDS011;23169;41.804;12.596;2023-08-31T09:54:47;13.68;;;4.70;;
37280;SDS011;23169;41.804;12.596;2023-08-31T09:57:19;15.75;;;4.10;;
37280;SDS011;23169;41.804;12.596;2023-08-31T09:59:48;15.68;;;5.20;;
37280;SDS011;23169;41.804;12.596;2023-08-31T10:02:18;12.80;;;4.57;;
37280;SDS011;23169;41.804;12.596;2023-08-31T10:04:50;16.73;;;5.75;;
37280;SDS011;23169;41.804;12.596;2023-08-31T10:07:21;13.82;;;4.53;;
37280;SDS011;23169;41.804;12.596;2023-08-31T10:09:54;10.90;;;3.80;;
37280;SDS011;23169;41.804;12.596;2023-08-31T10:12:25;12.20;;;4.13;;
37280;SDS011;23169;41.804;12.596;2023-08-31T10:14:56;13.43;;;4.07;;
37280;SDS011;23169;41.804;12.596;2023-08-31T10:17:27;16.90;;;5.10;;
37280;SDS011;23169;41.804;12.596;2023-08-31T10:19:57;11.95;;;3.75;;
37280;SDS011;23169;41.804;12.596;2023-08-31T10:22:26;13.70;;;3.70;;
37280;SDS011;23169;41.804;12.596;2023-08-31T10:24:57;11.65;;;3.90;;
37280;SDS011;23169;41.804;12.596;2023-08-31T10:27:41;15.35;;;3.67;;
37280;SDS011;23169;41.804;12.596;2023-08-31T10:35:52;12.68;;;3.78;;
37280;SDS011;23169;41.804;12.596;2023-08-31T10:41:01;13.50;;;3.83;;
37280;SDS011;23169;41.804;12.596;2023-08-31T10:44:16;17.35;;;3.97;;
37280;SDS011;23169;41.804;12.596;2023-08-31T10:46:36;15.77;;;4.20;;
37280;SDS011;23169;41.804;12.596;2023-08-31T10:51:44;11.20;;;3.72;;
37280;SDS011;23169;41.804;12.596;2023-08-31T10:56:52;13.43;;;4.97;;
37280;SDS011;23169;41.804;12.596;2023-08-31T10:59:46;14.07;;;4.30;;
37280;SDS011;23169;41.804;12.596;2023-08-31T11:02:27;9.52;;;3.92;;
37280;SDS011;23169;41.804;12.596;2023-08-31T11:05:07;11.10;;;4.07;;
37280;SDS011;23169;41.804;12.596;2023-08-31T11:07:41;16.30;;;4.72;;
37280;SDS011;23169;41.804;12.596;2023-08-31T11:12:55;10.40;;;3.33;;
37280;SDS011;23169;41.804;12.596;2023-08-31T11:15:29;12.82;;;4.00;;
37280;SDS011;23169;41.804;12.596;2023-08-31T11:17:58;10.73;;;3.47;;
37280;SDS011;23169;41.804;12.596;2023-08-31T11:20:31;9.70;;;3.80;;
37280;SDS011;23169;41.804;12.596;2023-08-31T11:23:01;12.40;;;3.58;;
37280;SDS011;23169;41.804;12.596;2023-08-31T11:25:31;11.63;;;3.75;;
37280;SDS011;23169;41.804;12.596;2023-08-31T11:28:01;12.57;;;3.60;;
37280;SDS011;23169;41.804;12.596;2023-08-31T11:33:06;10.02;;;3.15;;
37280;SDS011;23169;41.804;12.596;2023-08-31T11:35:38;12.77;;;3.80;;
37280;SDS011;23169;41.804;12.596;2023-08-31T11:38:09;9.90;;;3.00;;
37280;SDS011;23169;41.804;12.596;2023-08-31T11:40:39;11.60;;;3.50;;
37280;SDS011;23169;41.804;12.596;2023-08-31T11:43:09;11.00;;;3.15;;
37280;SDS011;23169;41.804;12.596;2023-08-31T11:45:39;10.50;;;3.30;;
37280;SDS011;23169;41.804;12.596;2023-08-31T11:48:10;11.05;;;3.45;;
37280;SDS011;23169;41.804;12.596;2023-08-31T11:50:39;10.10;;;3.22;;
37280;SDS011;23169;41.804;12.596;2023-08-31T11:53:10;9.90;;;2.88;;
37280;SDS011;23169;41.804;12.596;2023-08-31T11:55:48;14.07;;;3.95;;
37280;SDS011;23169;41.804;12.596;2023-08-31T11:58:18;15.05;;;4.00;;
37280;SDS011;23169;41.804;12.596;2023-08-31T12:00:54;9.65;;;3.30;;
37280;SDS011;23169;41.804;12.596;2023-08-31T12:03:37;10.63;;;3.15;;
37280;SDS011;23169;41.804;12.596;2023-08-31T12:06:16;13.15;;;4.00;;
37280;SDS011;23169;41.804;12.596;2023-08-31T12:08:47;13.38;;;3.70;;
37280;SDS011;23169;41.804;12.596;2023-08-31T12:11:18;7.85;;;3.10;;
37280;SDS011;23169;41.804;12.596;2023-08-31T12:13:50;10.80;;;3.47;;
37280;SDS011;23169;41.804;12.596;2023-08-31T12:16:18;8.15;;;2.95;;
37280;SDS011;23169;41.804;12.596;2023-08-31T12:18:48;8.68;;;3.45;;
37280;SDS011;23169;41.804;12.596;2023-08-31T12:21:19;10.70;;;3.65;;
37280;SDS011;23169;41.804;12.596;2023-08-31T12:23:50;13.10;;;3.60;;
37280;SDS011;23169;41.804;12.596;2023-08-31T12:26:20;10.93;;;3.45;;
37280;SDS011;23169;41.804;12.596;2023-08-31T12:28:50;9.82;;;3.60;;
37280;SDS011;23169;41.804;12.596;2023-08-31T12:31:19;14.55;;;3.25;;
37280;SDS011;23169;41.804;12.596;2023-08-31T12:33:50;10.38;;;3.55;;
37280;SDS011;23169;41.804;12.596;2023-08-31T12:36:19;13.52;;;4.70;;
37280;SDS011;23169;41.804;12.596;2023-08-31T12:38:49;10.95;;;3.58;;
37280;SDS011;23169;41.804;12.596;2023-08-31T12:41:19;10.88;;;3.33;;
37280;SDS011;23169;41.804;12.596;2023-08-31T12:43:49;14.82;;;3.72;;
37280;SDS011;23169;41.804;12.596;2023-08-31T12:46:19;14.15;;;5.22;;
37280;SDS011;23169;41.804;12.596;2023-08-31T12:48:50;10.75;;;3.30;;
37280;SDS011;23169;41.804;12.596;2023-08-31T12:51:20;16.20;;;3.63;;
37280;SDS011;23169;41.804;12.596;2023-08-31T12:53:50;11.43;;;3.92;;
37280;SDS011;23169;41.804;12.596;2023-08-31T12:56:20;11.23;;;4.20;;
37280;SDS011;23169;41.804;12.596;2023-08-31T12:58:53;10.82;;;3.58;;
37280;SDS011;23169;41.804;12.596;2023-08-31T13:01:23;14.10;;;3.72;;
37280;SDS011;23169;41.804;12.596;2023-08-31T13:03:54;14.90;;;3.65;;
37280;SDS011;23169;41.804;12.596;2023-08-31T13:06:24;12.45;;;4.05;;
37280;SDS011;23169;41.804;12.596;2023-08-31T13:08:56;14.00;;;3.55;;
37280;SDS011;23169;41.804;12.596;2023-08-31T13:11:27;13.18;;;3.60;;
37280;SDS011;23169;41.804;12.596;2023-08-31T13:14:01;19.08;;;3.75;;
37280;SDS011;23169;41.804;12.596;2023-08-31T13:16:33;8.52;;;3.00;;
37280;SDS011;23169;41.804;12.596;2023-08-31T13:19:06;14.23;;;3.97;;
37280;SDS011;23169;41.804;12.596;2023-08-31T13:21:35;13.35;;;3.67;;
37280;SDS011;23169;41.804;12.596;2023-08-31T13:24:04;15.57;;;4.00;;
37280;SDS011;23169;41.804;12.596;2023-08-31T13:26:33;10.90;;;3.15;;
37280;SDS011;23169;41.804;12.596;2023-08-31T13:29:02;14.70;;;3.70;;
37280;SDS011;23169;41.804;12.596;2023-08-31T13:31:33;11.00;;;3.72;;
37280;SDS011;23169;41.804;12.596;2023-08-31T13:34:02;13.25;;;3.15;;
37280;SDS011;23169;41.804;12.596;2023-08-31T13:36:33;10.30;;;3.25;;
37280;SDS011;23169;41.804;12.596;2023-08-31T13:39:03;10.30;;;3.58;;
37280;SDS011;23169;41.804;12.596;2023-08-31T13:41:33;14.07;;;3.80;;
37280;SDS011;23169;41.804;12.596;2023-08-31T13:44:02;10.52;;;3.47;;
37280;SDS011;23169;41.804;12.596;2023-08-31T13:46:31;14.10;;;4.10;;
37280;SDS011;23169;41.804;12.596;2023-08-31T13:49:02;11.23;;;3.53;;
37280;SDS011;23169;41.804;12.596;2023-08-31T13:51:31;14.05;;;3.60;;
37280;SDS011;23169;41.804;12.596;2023-08-31T13:54:01;9.45;;;3.42;;
37280;SDS011;23169;41.804;12.596;2023-08-31T13:56:35;10.75;;;3.72;;
37280;SDS011;23169;41.804;12.596;2023-08-31T13:59:04;10.85;;;3.70;;
37280;SDS011;23169;41.804;12.596;2023-08-31T14:01:33;17.20;;;4.25;;
37280;SDS011;23169;41.804;12.596;2023-08-31T14:04:02;15.80;;;3.47;;
37280;SDS011;23169;41.804;12.596;2023-08-31T14:06:33;10.45;;;3.78;;
37280;SDS011;23169;41.804;12.596;2023-08-31T14:09:02;9.63;;;4.25;;
37280;SDS011;23169;41.804;12.596;2023-08-31T14:11:33;12.05;;;3.28;;
37280;SDS011;23169;41.804;12.596;2023-08-31T14:14:03;11.07;;;3.00;;
37280;SDS011;23169;41.804;12.596;2023-08-31T14:16:35;10.10;;;3.55;;
37280;SDS011;23169;41.804;12.596;2023-08-31T14:19:06;12.02;;;3.40;;
37280;SDS011;23169;41.804;12.596;2023-08-31T14:21:35;12.02;;;3.67;;
37280;SDS011;23169;41.804;12.596;2023-08-31T14:24:05;8.82;;;3.13;;
37280;SDS011;23169;41.804;12.596;2023-08-31T14:26:35;9.45;;;3.47;;
37280;SDS011;23169;41.804;12.596;2023-08-31T14:29:05;12.65;;;3.33;;
37280;SDS011;23169;41.804;12.596;2023-08-31T14:31:35;15.13;;;3.80;;
37280;SDS011;23169;41.804;12.596;2023-08-31T14:34:04;9.48;;;3.60;;
37280;SDS011;23169;41.804;12.596;2023-08-31T14:36:34;12.98;;;3.08;;
37280;SDS011;23169;41.804;12.596;2023-08-31T14:39:13;14.25;;;3.80;;
37280;SDS011;23169;41.804;12.596;2023-08-31T14:41:56;14.32;;;3.60;;
37280;SDS011;23169;41.804;12.596;2023-08-31T14:44:41;14.93;;;3.27;;
37280;SDS011;23169;41.804;12.596;2023-08-31T14:47:25;15.10;;;3.78;;
37280;SDS011;23169;41.804;12.596;2023-08-31T14:50:09;8.90;;;3.33;;
37280;SDS011;23169;41.804;12.596;2023-08-31T14:52:53;12.75;;;3.33;;
37280;SDS011;23169;41.804;12.596;2023-08-31T14:55:37;13.30;;;3.10;;
37280;SDS011;23169;41.804;12.596;2023-08-31T14:58:21;12.25;;;3.72;;
37280;SDS011;23169;41.804;12.596;2023-08-31T15:01:06;12.13;;;3.60;;
37280;SDS011;23169;41.804;12.596;2023-08-31T15:03:51;12.13;;;3.33;;
37280;SDS011;23169;41.804;12.596;2023-08-31T15:06:35;9.27;;;3.22;;